Time;durP1;ratioP1;P1;durP2;ratioP2;P2;SDS_P1;SDS_P2;PMS_P1;PMS_P2;Temp;Humidity;BMP_temperature;BMP_pressure;BME280_temperature;BME280_humidity;BME280_pressure;Samples;Min_cycle;Max_cycle;Signal;HPM_P1;HPM_P2
2022/05/21 00:00:51;;;;;;;8.45;5.65;;;;;;;;;;6138945;23;20009;-95
2022/05/21 00:03:20;;;;;;;7.22;5.28;;;;;;;;;;6131395;23;20006;-93
2022/05/21 00:05:47;;;;;;;6.50;5.07;;;;;;;;;;6131661;23;20040;-95
2022/05/21 00:08:22;;;;;;;5.78;5.18;;;;;;;;;;6130178;23;20398;-95
2022/05/21 00:10:52;;;;;;;6.88;4.82;;;;;;;;;;6130563;23;20009;-94
2022/05/21 00:13:27;;;;;;;8.85;5.47;;;;;;;;;;6160630;23;20005;-95
2022/05/21 00:15:59;;;;;;;8.52;5.30;;;;;;;;;;6186766;23;20080;-95
2022/05/21 00:18:31;;;;;;;7.32;5.05;;;;;;;;;;6186536;23;20016;-92
2022/05/21 00:21:06;;;;;;;7.35;4.88;;;;;;;;;;6186574;23;20091;-94
2022/05/21 00:29:26;;;;;;;8.98;5.60;;;;;;;;;;6188447;23;20416;-95
2022/05/21 00:31:55;;;;;;;9.48;5.20;;;;;;;;;;6186559;23;20064;-92
2022/05/21 00:34:22;;;;;;;25.58;7.82;;;;;;;;;;6206706;23;20036;-92
2022/05/21 00:36:55;;;;;;;33.08;9.50;;;;;;;;;;6186325;23;20505;-92
2022/05/21 00:39:33;;;;;;;21.33;6.95;;;;;;;;;;6186110;23;20009;-90
2022/05/21 00:45:20;;;;;;;13.73;5.18;;;;;;;;;;6187181;23;20044;-90
2022/05/21 00:50:50;;;;;;;13.35;4.60;;;;;;;;;;6187049;23;20089;-92
2022/05/21 00:53:27;;;;;;;15.07;5.50;;;;;;;;;;6185520;23;20088;-93
2022/05/21 00:56:00;;;;;;;16.13;4.85;;;;;;;;;;6186303;23;20315;-92
2022/05/21 01:01:48;;;;;;;13.35;5.10;;;;;;;;;;6187278;23;20453;-91
2022/05/21 01:07:23;;;;;;;14.43;4.95;;;;;;;;;;6175895;23;20036;-89
2022/05/21 01:24:59;;;;;;;11.50;4.28;;;;;;;;;;6186462;23;20024;-94
2022/05/21 01:33:25;;;;;;;7.30;4.22;;;;;;;;;;6186562;23;20055;-92
2022/05/21 01:36:02;;;;;;;13.70;4.88;;;;;;;;;;6160493;23;20063;-92
2022/05/21 01:47:59;;;;;;;12.13;5.10;;;;;;;;;;6039143;23;20018;-90
2022/05/21 01:53:32;;;;;;;13.32;5.22;;;;;;;;;;6039060;23;20050;-89
2022/05/21 01:56:01;;;;;;;13.38;4.82;;;;;;;;;;6038189;23;20062;-90
2022/05/21 01:58:54;;;;;;;9.32;4.68;;;;;;;;;;6055943;23;20064;-89
2022/05/21 02:01:24;;;;;;;9.85;4.55;;;;;;;;;;6178530;23;20009;-92
2022/05/21 02:04:02;;;;;;;8.30;4.88;;;;;;;;;;6160096;23;20005;-90
2022/05/21 02:06:30;;;;;;;13.05;5.63;;;;;;;;;;6160171;23;20005;-90
2022/05/21 02:08:59;;;;;;;8.15;4.60;;;;;;;;;;6159718;23;20017;-92
2022/05/21 02:11:48;;;;;;;7.88;4.38;;;;;;;;;;6160952;23;20338;-89
2022/05/21 02:14:39;;;;;;;11.18;4.72;;;;;;;;;;6160798;23;19997;-89
2022/05/21 02:23:30;;;;;;;11.70;5.57;;;;;;;;;;6186422;23;20060;-91
2022/05/21 02:26:04;;;;;;;7.60;5.10;;;;;;;;;;6159868;23;20009;-91
2022/05/21 02:28:34;;;;;;;12.38;5.60;;;;;;;;;;6160523;23;20001;-90
2022/05/21 02:40:17;;;;;;;7.30;4.50;;;;;;;;;;6186449;23;20020;-90
2022/05/21 02:42:46;;;;;;;8.57;4.88;;;;;;;;;;6160216;23;20001;-91
2022/05/21 02:48:15;;;;;;;8.90;4.75;;;;;;;;;;6187024;23;20330;-91
2022/05/21 02:50:57;;;;;;;8.88;4.78;;;;;;;;;;6183667;23;20439;-90
2022/05/21 02:56:35;;;;;;;8.90;4.95;;;;;;;;;;6187203;23;20016;-93
2022/05/21 02:59:09;;;;;;;6.70;4.45;;;;;;;;;;6162553;23;20001;-91
2022/05/21 03:04:54;;;;;;;11.43;4.28;;;;;;;;;;6097862;23;20006;-93
2022/05/21 03:11:01;;;;;;;6.68;4.38;;;;;;;;;;6158984;23;20583;-91
2022/05/21 03:13:30;;;;;;;8.57;4.55;;;;;;;;;;6133169;23;20027;-90
2022/05/21 03:16:03;;;;;;;8.30;4.30;;;;;;;;;;6133072;23;20029;-91
2022/05/21 03:18:41;;;;;;;9.82;4.40;;;;;;;;;;6132589;23;20022;-90
2022/05/21 03:21:10;;;;;;;8.25;4.40;;;;;;;;;;6132664;23;20013;-90
2022/05/21 03:23:39;;;;;;;9.13;4.20;;;;;;;;;;6134723;23;20040;-93
2022/05/21 03:26:09;;;;;;;9.75;4.25;;;;;;;;;;6132468;23;20010;-92
2022/05/21 03:28:38;;;;;;;7.13;4.15;;;;;;;;;;6133059;23;20032;-91
2022/05/21 03:34:23;;;;;;;6.53;3.40;;;;;;;;;;6158573;23;20423;-90
2022/05/21 03:36:58;;;;;;;5.47;3.47;;;;;;;;;;6126330;23;20009;-91
2022/05/21 03:39:42;;;;;;;5.88;3.55;;;;;;;;;;6101976;23;20025;-91
2022/05/21 03:42:24;;;;;;;6.40;3.53;;;;;;;;;;6101134;23;20336;-92
2022/05/21 03:47:59;;;;;;;9.77;4.07;;;;;;;;;;6039886;23;20026;-92
2022/05/21 03:50:44;;;;;;;6.07;3.58;;;;;;;;;;6030269;23;20011;-91
2022/05/21 03:53:16;;;;;;;8.85;4.15;;;;;;;;;;6039488;23;20015;-91
2022/05/21 03:55:45;;;;;;;7.95;3.83;;;;;;;;;;6039522;23;20059;-90
2022/05/21 03:58:15;;;;;;;8.70;3.92;;;;;;;;;;6040565;23;20007;-89
2022/05/21 04:00:50;;;;;;;7.82;4.05;;;;;;;;;;6039391;23;20003;-90
2022/05/21 04:03:19;;;;;;;8.77;4.40;;;;;;;;;;6039221;23;20011;-91
2022/05/21 04:06:05;;;;;;;8.07;4.13;;;;;;;;;;6039327;23;20422;-92
2022/05/21 04:12:28;;;;;;;8.43;3.80;;;;;;;;;;6068241;23;20106;-91
2022/05/21 04:21:10;;;;;;;4.35;2.65;;;;;;;;;;6097433;23;20425;-92
2022/05/21 04:23:47;;;;;;;6.28;2.90;;;;;;;;;;6072697;23;20113;-90
2022/05/21 04:32:15;;;;;;;5.25;2.80;;;;;;;;;;6098949;23;20029;-91
2022/05/21 04:34:47;;;;;;;6.38;2.70;;;;;;;;;;6129198;23;20316;-91
2022/05/21 04:37:21;;;;;;;5.30;2.65;;;;;;;;;;6131462;23;20010;-91
2022/05/21 04:39:47;;;;;;;4.55;2.55;;;;;;;;;;6131955;23;20001;-90
2022/05/21 04:42:13;;;;;;;3.42;2.40;;;;;;;;;;6131677;23;20033;-90
2022/05/21 04:44:39;;;;;;;6.00;3.28;;;;;;;;;;6131593;23;20328;-94
2022/05/21 04:47:06;;;;;;;5.95;3.08;;;;;;;;;;6132357;23;20009;-93
2022/05/21 04:55:23;;;;;;;5.13;3.03;;;;;;;;;;6157386;23;20458;-93
2022/05/21 04:58:16;;;;;;;4.85;3.03;;;;;;;;;;6131475;23;20005;-93
2022/05/21 05:10:03;;;;;;;4.32;3.35;;;;;;;;;;6171592;23;20031;-93
2022/05/21 05:21:55;;;;;;;;;;;;;;;;;;;;;
2022/05/21 05:24:13;;;;;;;5.22;3.38;;;;;;;;;;6185233;23;20012;-92
2022/05/21 05:26:39;;;;;;;5.00;3.20;;;;;;;;;;6161452;23;19998;-92
2022/05/21 05:29:06;;;;;;;4.72;3.40;;;;;;;;;;6161016;23;20452;-92
2022/05/21 05:31:32;;;;;;;6.18;3.53;;;;;;;;;;6160713;23;20017;-92
2022/05/21 05:33:59;;;;;;;5.20;3.10;;;;;;;;;;6160792;23;20042;-92
2022/05/21 05:36:25;;;;;;;4.32;3.28;;;;;;;;;;6160809;23;20016;-92
2022/05/21 05:38:51;;;;;;;6.22;3.50;;;;;;;;;;6160652;23;20435;-93
2022/05/21 05:41:17;;;;;;;6.57;3.70;;;;;;;;;;6160734;23;20008;-92
2022/05/21 05:43:43;;;;;;;7.45;3.17;;;;;;;;;;6160827;23;20017;-92
2022/05/21 05:46:10;;;;;;;9.48;3.65;;;;;;;;;;6160685;23;20439;-92
2022/05/21 05:48:36;;;;;;;5.03;2.95;;;;;;;;;;6161065;23;20017;-92
2022/05/21 05:51:04;;;;;;;7.18;3.33;;;;;;;;;;6160745;23;20033;-91
2022/05/21 05:53:30;;;;;;;6.43;3.30;;;;;;;;;;6160647;23;20019;-92
2022/05/21 05:55:57;;;;;;;7.68;3.13;;;;;;;;;;6160818;23;20087;-91
2022/05/21 06:01:07;;;;;;;5.72;3.90;;;;;;;;;;6188904;23;20020;-91
2022/05/21 06:03:34;;;;;;;7.10;3.55;;;;;;;;;;6160451;23;20058;-91
2022/05/21 06:06:01;;;;;;;7.95;3.45;;;;;;;;;;6160770;23;20379;-94
2022/05/21 06:08:27;;;;;;;6.85;3.20;;;;;;;;;;6160944;23;20001;-94
2022/05/21 06:10:53;;;;;;;8.60;4.10;;;;;;;;;;6159167;23;20024;-93
2022/05/21 06:13:49;;;;;;;5.95;3.42;;;;;;;;;;6160839;23;20009;-94
2022/05/21 06:16:21;;;;;;;5.57;3.38;;;;;;;;;;6057969;23;20003;-92
2022/05/21 06:18:56;;;;;;;6.82;3.88;;;;;;;;;;6160636;23;20008;-93
2022/05/21 06:21:25;;;;;;;6.95;3.70;;;;;;;;;;6160689;23;20005;-92
2022/05/21 06:26:48;;;;;;;6.13;3.17;;;;;;;;;;6187364;23;20063;-94
2022/05/21 06:29:16;;;;;;;9.40;4.03;;;;;;;;;;6161329;23;20085;-93
2022/05/21 06:31:42;;;;;;;8.13;3.60;;;;;;;;;;6162296;23;20020;-92
2022/05/21 06:34:16;;;;;;;7.45;3.33;;;;;;;;;;6162648;23;20088;-94
2022/05/21 06:36:42;;;;;;;6.68;3.50;;;;;;;;;;6164595;23;20139;-93
2022/05/21 06:39:08;;;;;;;7.65;3.55;;;;;;;;;;6171590;23;20092;-94
2022/05/21 06:41:59;;;;;;;10.52;4.07;;;;;;;;;;6162736;23;20024;-94
2022/05/21 06:54:10;;;;;;;5.55;3.35;;;;;;;;;;6150529;23;20085;-95
2022/05/21 06:59:51;;;;;;;8.65;2.70;;;;;;;;;;6195241;23;20059;-95
2022/05/21 07:02:25;;;;;;;6.78;2.85;;;;;;;;;;6162216;23;20040;-96
2022/05/21 07:11:08;;;;;;;6.00;2.70;;;;;;;;;;6073028;23;20156;-96
2022/05/21 07:13:34;;;;;;;5.22;2.00;;;;;;;;;;6049678;23;20074;-94
2022/05/21 07:16:21;;;;;;;6.20;2.38;;;;;;;;;;6050332;23;20061;-96
2022/05/21 07:18:50;;;;;;;6.00;2.00;;;;;;;;;;6077827;23;20034;-94
2022/05/21 07:21:18;;;;;;;7.00;2.38;;;;;;;;;;6055561;23;20007;-96
2022/05/21 07:23:50;;;;;;;4.57;1.70;;;;;;;;;;6047656;23;20035;-95
2022/05/21 07:32:37;;;;;;;4.28;1.98;;;;;;;;;;6072734;23;20071;-96
2022/05/21 07:35:26;;;;;;;3.15;1.73;;;;;;;;;;6047847;23;20003;-94
2022/05/21 07:38:17;;;;;;;4.65;2.03;;;;;;;;;;6081478;23;20005;-93
2022/05/21 07:40:52;;;;;;;7.20;1.67;;;;;;;;;;6172883;23;20087;-94
2022/05/21 07:49:26;;;;;;;7.65;2.83;;;;;;;;;;6191888;23;20036;-94
2022/05/21 07:52:12;;;;;;;3.03;1.67;;;;;;;;;;6190490;23;20036;-95
2022/05/21 08:07:21;;;;;;;;;;;;;;;;;;;;;
2022/05/21 08:10:09;;;;;;;5.30;1.83;;;;;;;;;;6075861;23;20030;-96
2022/05/21 08:12:47;;;;;;;5.43;1.70;;;;;;;;;;6119839;23;20047;-96
2022/05/21 08:15:14;;;;;;;6.63;1.88;;;;;;;;;;6193881;23;20490;-96
2022/05/21 08:21:09;;;;;;;7.15;1.63;;;;;;;;;;6219517;23;20050;-93
2022/05/21 08:32:38;;;;;;;3.05;1.30;;;;;;;;;;6161865;23;20076;-94
2022/05/21 08:35:17;;;;;;;4.75;1.30;;;;;;;;;;6163992;23;20013;-95
2022/05/21 08:44:30;;;;;;;3.85;1.80;;;;;;;;;;6074269;23;20059;-96
2022/05/21 08:53:30;;;;;;;5.32;1.80;;;;;;;;;;6191724;23;20028;-96
2022/05/21 08:56:00;;;;;;;5.32;1.65;;;;;;;;;;6163854;23;20005;-94
2022/05/21 08:58:30;;;;;;;3.38;1.63;;;;;;;;;;6162857;23;20005;-96
2022/05/21 09:00:56;;;;;;;5.38;1.63;;;;;;;;;;6165444;23;20005;-94
2022/05/21 09:03:24;;;;;;;4.10;1.58;;;;;;;;;;6163793;23;20032;-95
2022/05/21 09:05:59;;;;;;;3.83;1.48;;;;;;;;;;6163291;23;20012;-95
2022/05/21 09:08:29;;;;;;;3.85;1.45;;;;;;;;;;6158573;23;20013;-94
2022/05/21 09:11:11;;;;;;;6.03;1.83;;;;;;;;;;6162830;23;20012;-95
2022/05/21 09:14:02;;;;;;;3.53;1.80;;;;;;;;;;6167533;23;20009;-94
2022/05/21 09:22:31;;;;;;;3.30;1.70;;;;;;;;;;6191437;23;20039;-94
2022/05/21 09:25:19;;;;;;;4.93;1.20;;;;;;;;;;6163680;23;20005;-94
2022/05/21 09:27:49;;;;;;;6.15;1.70;;;;;;;;;;6148671;23;20042;-95
2022/05/21 09:30:40;;;;;;;8.73;1.95;;;;;;;;;;6071881;23;20515;-96
2022/05/21 09:33:40;;;;;;;3.78;1.25;;;;;;;;;;6044629;23;20235;-95
2022/05/21 09:36:07;;;;;;;5.35;1.63;;;;;;;;;;6043578;23;20123;-95
2022/05/21 09:41:37;;;;;;;3.85;1.50;;;;;;;;;;6068252;23;20094;-94
2022/05/21 09:47:12;;;;;;;2.75;1.48;;;;;;;;;;6067635;23;20018;-94
2022/05/21 09:49:39;;;;;;;4.68;1.40;;;;;;;;;;6047146;23;20027;-95
2022/05/21 09:52:10;;;;;;;4.60;1.30;;;;;;;;;;6043509;23;20021;-96
2022/05/21 09:54:37;;;;;;;5.30;1.52;;;;;;;;;;6042940;23;20003;-94
2022/05/21 09:57:04;;;;;;;2.30;1.08;;;;;;;;;;6042818;23;20007;-94
2022/05/21 09:59:33;;;;;;;2.70;1.13;;;;;;;;;;6042930;23;20003;-94
2022/05/21 10:05:03;;;;;;;5.28;1.13;;;;;;;;;;6127187;23;20013;-94
2022/05/21 10:13:33;;;;;;;3.33;1.05;;;;;;;;;;6127190;23;20028;-92
2022/05/21 10:16:25;;;;;;;4.25;1.10;;;;;;;;;;6100858;23;20013;-96
2022/05/21 10:19:05;;;;;;;3.58;0.95;;;;;;;;;;6097224;23;20006;-95
2022/05/21 10:21:56;;;;;;;2.15;0.90;;;;;;;;;;6094031;23;20038;-95
2022/05/21 10:24:39;;;;;;;5.15;0.90;;;;;;;;;;6101710;23;20010;-94
2022/05/21 10:27:27;;;;;;;7.07;1.17;;;;;;;;;;6025511;23;1872029;-92
2022/05/21 10:39:48;;;;;;;6.53;1.00;;;;;;;;;;6158369;23;20029;-94
2022/05/21 10:42:30;;;;;;;2.45;1.00;;;;;;;;;;6126014;23;20015;-93
2022/05/21 10:44:59;;;;;;;3.70;1.02;;;;;;;;;;6132783;23;20339;-94
2022/05/21 10:50:51;;;;;;;5.68;1.05;;;;;;;;;;6150825;23;20060;-93
2022/05/21 10:53:43;;;;;;;3.55;1.13;;;;;;;;;;6131807;23;20114;-94
2022/05/21 10:56:12;;;;;;;2.65;1.20;;;;;;;;;;6131997;23;20006;-95
2022/05/21 10:59:02;;;;;;;4.65;1.20;;;;;;;;;;6131886;23;20012;-95
2022/05/21 11:01:50;;;;;;;2.63;1.02;;;;;;;;;;6132011;23;20316;-95
2022/05/21 11:04:34;;;;;;;3.85;0.90;;;;;;;;;;6131659;23;20502;-95
2022/05/21 11:07:20;;;;;;;1.65;0.63;;;;;;;;;;6157684;23;20012;-93
2022/05/21 11:09:57;;;;;;;2.55;1.33;;;;;;;;;;6130862;23;20457;-93
2022/05/21 11:12:52;;;;;;;3.50;0.70;;;;;;;;;;6142163;23;20024;-90
2022/05/21 11:15:27;;;;;;;3.53;0.63;;;;;;;;;;6139853;23;20016;-91
2022/05/21 11:17:57;;;;;;;3.85;0.80;;;;;;;;;;6132494;23;20002;-94
2022/05/21 11:20:34;;;;;;;6.18;0.80;;;;;;;;;;6132537;23;20010;-94
2022/05/21 11:23:21;;;;;;;4.35;0.70;;;;;;;;;;6133022;23;20316;-94
2022/05/21 11:26:15;;;;;;;3.17;0.88;;;;;;;;;;6133808;23;20020;-95
2022/05/21 11:28:50;;;;;;;1.67;0.70;;;;;;;;;;6132874;23;20434;-94
2022/05/21 11:52:55;;;;;;;2.38;0.82;;;;;;;;;;6180894;22;20051;-93
2022/05/21 11:58:48;;;;;;;3.05;1.00;;;;;;;;;;6279294;22;20007;-96
2022/05/21 12:44:47;;;;;;;3.10;0.90;;;;;;;;;;6248508;23;20010;-94
2022/05/21 12:47:21;;;;;;;4.55;1.20;;;;;;;;;;6247000;23;20110;-93
2022/05/21 12:49:51;;;;;;;4.85;1.42;;;;;;;;;;6247123;23;20440;-94
2022/05/21 12:52:40;;;;;;;3.08;1.13;;;;;;;;;;6251607;23;20441;-95
2022/05/21 12:55:21;;;;;;;2.97;1.00;;;;;;;;;;6232030;23;20004;-95
2022/05/21 12:57:48;;;;;;;2.10;0.90;;;;;;;;;;6252720;22;20012;-90
2022/05/21 13:00:18;;;;;;;4.20;0.95;;;;;;;;;;6257672;22;20004;-92
2022/05/21 13:02:48;;;;;;;2.33;1.10;;;;;;;;;;6248138;23;20075;-93
2022/05/21 13:05:19;;;;;;;7.57;1.23;;;;;;;;;;6247348;23;20004;-91
2022/05/21 13:07:45;;;;;;;3.00;1.08;;;;;;;;;;6246071;23;20004;-95
2022/05/21 13:10:25;;;;;;;1.50;0.80;;;;;;;;;;6246366;23;20023;-94
2022/05/21 13:12:54;;;;;;;2.53;1.00;;;;;;;;;;6246663;23;20019;-94
2022/05/21 13:15:40;;;;;;;2.65;1.00;;;;;;;;;;6246792;23;20073;-94
2022/05/21 13:18:15;;;;;;;4.70;1.13;;;;;;;;;;6250612;23;20019;-94
2022/05/21 13:20:44;;;;;;;4.68;0.98;;;;;;;;;;6246280;23;20000;-93
2022/05/21 13:23:29;;;;;;;3.85;0.90;;;;;;;;;;6246063;23;20004;-95
2022/05/21 13:25:56;;;;;;;4.32;0.90;;;;;;;;;;6246101;23;20004;-95
2022/05/21 14:37:36;;;;;;;3.45;0.65;;;;;;;;;;6182654;23;20032;-93
2022/05/21 14:40:12;;;;;;;1.70;0.77;;;;;;;;;;6163068;23;20017;-94
2022/05/21 14:42:41;;;;;;;5.78;0.90;;;;;;;;;;6156077;23;20006;-94
2022/05/21 14:45:26;;;;;;;2.95;0.82;;;;;;;;;;6164203;23;20017;-91
2022/05/21 14:56:46;;;;;;;3.38;0.70;;;;;;;;;;6164902;23;20028;-94
2022/05/21 14:59:27;;;;;;;2.67;0.60;;;;;;;;;;6192340;23;20116;-95
2022/05/21 15:02:29;;;;;;;1.90;0.90;;;;;;;;;;6192376;23;20009;-94
2022/05/21 15:08:17;;;;;;;2.38;0.80;;;;;;;;;;6068903;23;20019;-95
2022/05/21 15:10:44;;;;;;;2.28;0.60;;;;;;;;;;6045227;23;20006;-94
2022/05/21 16:34:16;;;;;;;2.70;0.80;;;;;;;;;;6130410;23;20117;-95
2022/05/21 16:56:21;;;;;;;1.20;0.60;;;;;;;;;;6167442;23;20028;-93
2022/05/21 17:08:20;;;;;;;3.60;1.70;;;;;;;;;;6186836;23;20105;-94
2022/05/21 17:39:48;;;;;;;3.20;1.20;;;;;;;;;;6185326;23;20104;-94
2022/05/21 17:42:29;;;;;;;3.92;1.00;;;;;;;;;;6148559;23;20020;-96
2022/05/21 17:45:01;;;;;;;4.30;1.30;;;;;;;;;;6133714;23;20013;-94
2022/05/21 17:47:46;;;;;;;4.00;1.13;;;;;;;;;;6130745;23;20009;-96
2022/05/21 18:28:46;;;;;;;4.75;1.05;;;;;;;;;;6180528;23;20028;-92
2022/05/21 18:37:19;;;;;;;3.47;1.20;;;;;;;;;;6173372;23;20060;-95
2022/05/21 18:39:51;;;;;;;2.70;1.15;;;;;;;;;;6146872;23;20009;-96
2022/05/21 18:42:44;;;;;;;10.02;1.27;;;;;;;;;;6158965;23;20062;-92
2022/05/21 18:48:24;;;;;;;6.38;1.88;;;;;;;;;;5984127;24;20064;-95
2022/05/21 18:54:06;;;;;;;4.85;2.83;;;;;;;;;;6068781;23;20082;-94
2022/05/21 18:59:20;;;;;;;6.43;3.80;;;;;;;;;;6069457;23;20070;-96
2022/05/21 20:27:16;;;;;;;5.20;1.33;;;;;;;;;;6217534;23;20124;-93
2022/05/21 20:30:07;;;;;;;4.68;1.38;;;;;;;;;;6215780;23;20005;-95
2022/05/21 20:44:43;;;;;;;3.65;1.25;;;;;;;;;;6187140;23;20011;-93
2022/05/21 20:52:21;;;;;;;3.03;1.20;;;;;;;;;;6174629;23;20328;-94
2022/05/21 20:54:50;;;;;;;3.28;1.30;;;;;;;;;;6193121;23;19986;-91
2022/05/21 21:06:16;;;;;;;4.13;1.73;;;;;;;;;;6187618;23;20079;-93
2022/05/21 21:09:16;;;;;;;2.63;1.73;;;;;;;;;;6185899;23;20005;-93
2022/05/21 22:10:56;;;;;;;4.38;1.70;;;;;;;;;;6208983;23;20044;-94
2022/05/21 22:16:32;;;;;;;4.03;1.85;;;;;;;;;;6216883;23;20011;-93
2022/05/21 22:19:02;;;;;;;6.18;2.05;;;;;;;;;;6190237;23;20005;-93
2022/05/21 22:21:32;;;;;;;3.58;1.83;;;;;;;;;;6190419;23;20009;-93
2022/05/21 22:24:08;;;;;;;3.30;1.70;;;;;;;;;;6182601;23;20004;-93
2022/05/21 22:26:46;;;;;;;3.55;2.10;;;;;;;;;;6190203;23;20009;-92
2022/05/21 22:29:18;;;;;;;3.58;2.00;;;;;;;;;;6190340;23;20005;-94
2022/05/21 22:34:40;;;;;;;5.28;1.83;;;;;;;;;;6187114;23;20156;-93
2022/05/21 22:43:14;;;;;;;6.57;2.10;;;;;;;;;;6145783;23;20013;-94
2022/05/21 22:46:06;;;;;;;5.32;2.03;;;;;;;;;;6132679;23;20036;-93
2022/05/21 22:48:44;;;;;;;4.38;1.92;;;;;;;;;;6071598;23;20011;-93
2022/05/21 22:51:18;;;;;;;5.35;1.70;;;;;;;;;;6071519;23;20006;-94
2022/05/21 22:53:51;;;;;;;3.90;1.70;;;;;;;;;;6071251;23;20010;-94
2022/05/21 22:59:30;;;;;;;3.47;2.17;;;;;;;;;;6096348;23;20021;-93
2022/05/21 23:02:12;;;;;;;4.03;1.77;;;;;;;;;;6071621;23;20010;-92
2022/05/21 23:04:38;;;;;;;4.07;1.90;;;;;;;;;;6071927;23;20033;-94
2022/05/21 23:10:41;;;;;;;2.60;1.85;;;;;;;;;;6127128;23;20024;-94
2022/05/21 23:13:22;;;;;;;3.55;1.98;;;;;;;;;;6120666;23;20451;-91
2022/05/21 23:25:00;;;;;;;4.57;2.00;;;;;;;;;;6158392;23;20462;-93
2022/05/21 23:27:52;;;;;;;3.53;1.83;;;;;;;;;;6132943;23;20427;-92
2022/05/21 23:36:26;;;;;;;9.13;1.92;;;;;;;;;;6189247;23;20015;-95
2022/05/21 23:39:12;;;;;;;4.10;2.20;;;;;;;;;;6126091;23;20038;-91
2022/05/21 23:41:45;;;;;;;4.07;2.33;;;;;;;;;;6115281;23;20033;-91
2022/05/21 23:50:21;;;;;;;5.00;1.90;;;;;;;;;;5983419;24;20018;-93
2022/05/21 23:52:47;;;;;;;4.00;1.70;;;;;;;;;;5959882;24;20099;-93
2022/05/21 23:55:47;;;;;;;6.45;1.73;;;;;;;;;;5955119;24;20531;-93
2022/05/21 23:58:19;;;;;;;6.15;1.80;;;;;;;;;;5902528;24;20165;-93
